Time;durP1;ratioP1;P1;durP2;ratioP2;P2;SDS_P1;SDS_P2;PMS_P1;PMS_P2;Temp;Humidity;BMP_temperature;BMP_pressure;BME280_temperature;BME280_humidity;BME280_pressure;Samples;Min_cycle;Max_cycle;Signal;HPM_P1;HPM_P2
2022/06/30 00:00:09;;;;;;;7.70;7.20;;;;;;;;;;5028823;28;20923;-74
2022/06/30 00:02:36;;;;;;;7.35;6.85;;;;;;;;;;5037690;28;20435;-74
2022/06/30 00:05:04;;;;;;;8.73;8.00;;;;;;;;;;5031948;28;20543;-74
2022/06/30 00:07:31;;;;;;;7.45;6.95;;;;;;;;;;5043342;28;20771;-74
2022/06/30 00:09:58;;;;;;;7.28;6.70;;;;;;;;;;5034707;28;20433;-74
2022/06/30 00:12:27;;;;;;;7.38;6.68;;;;;;;;;;5037861;28;20425;-75
2022/06/30 00:14:54;;;;;;;8.02;7.25;;;;;;;;;;5034988;28;20437;-74
2022/06/30 00:17:21;;;;;;;7.50;6.90;;;;;;;;;;5033358;28;20542;-74
2022/06/30 00:19:48;;;;;;;7.65;7.15;;;;;;;;;;5032245;28;20458;-74
2022/06/30 00:22:15;;;;;;;7.30;6.70;;;;;;;;;;5030932;28;20840;-75
2022/06/30 00:24:42;;;;;;;7.20;6.57;;;;;;;;;;5032130;28;20438;-74
2022/06/30 00:27:11;;;;;;;7.85;7.25;;;;;;;;;;5034527;28;20440;-74
2022/06/30 00:29:40;;;;;;;7.30;6.80;;;;;;;;;;5034269;28;20434;-74
2022/06/30 00:32:07;;;;;;;7.93;7.32;;;;;;;;;;5040323;28;20898;-74
2022/06/30 00:34:34;;;;;;;7.63;6.95;;;;;;;;;;5037362;28;20437;-74
2022/06/30 00:37:01;;;;;;;7.65;7.03;;;;;;;;;;5034782;28;20800;-74
2022/06/30 00:39:29;;;;;;;8.10;7.40;;;;;;;;;;5036692;28;20801;-74
2022/06/30 00:41:56;;;;;;;7.43;6.93;;;;;;;;;;5041863;28;20433;-74
2022/06/30 00:44:23;;;;;;;6.90;6.40;;;;;;;;;;5035745;28;20452;-73
2022/06/30 00:46:51;;;;;;;7.80;7.20;;;;;;;;;;5036607;28;20807;-75
2022/06/30 00:49:20;;;;;;;7.70;7.20;;;;;;;;;;5032100;28;20438;-75
2022/06/30 00:51:47;;;;;;;7.80;7.30;;;;;;;;;;5041173;28;20490;-74
2022/06/30 00:54:14;;;;;;;8.10;7.50;;;;;;;;;;5030122;28;20474;-75
2022/06/30 00:56:43;;;;;;;8.30;7.60;;;;;;;;;;5033653;28;20744;-74
2022/06/30 00:59:14;;;;;;;7.50;6.90;;;;;;;;;;5035711;28;20503;-74
2022/06/30 01:01:43;;;;;;;7.50;7.00;;;;;;;;;;5041983;28;20439;-74
2022/06/30 01:04:13;;;;;;;8.10;7.50;;;;;;;;;;5034020;28;20457;-73
2022/06/30 01:06:43;;;;;;;8.70;8.00;;;;;;;;;;5037232;28;20449;-74
2022/06/30 01:09:10;;;;;;;7.78;7.28;;;;;;;;;;5032338;28;20447;-74
2022/06/30 01:14:22;;;;;;;8.00;7.50;;;;;;;;;;5033721;28;20538;-75
2022/06/30 01:16:50;;;;;;;8.00;7.40;;;;;;;;;;5036892;28;20428;-73
2022/06/30 01:19:18;;;;;;;8.00;7.50;;;;;;;;;;5038089;28;20535;-75
2022/06/30 01:22:00;;;;;;;7.93;7.43;;;;;;;;;;5035006;28;20449;-75
2022/06/30 01:24:27;;;;;;;8.05;7.47;;;;;;;;;;5032044;28;21063;-75
2022/06/30 01:26:57;;;;;;;7.88;7.28;;;;;;;;;;5033314;28;20433;-75
2022/06/30 01:29:24;;;;;;;8.82;8.18;;;;;;;;;;5030656;28;20430;-75
2022/06/30 01:31:51;;;;;;;8.00;7.40;;;;;;;;;;5037128;28;20555;-75
2022/06/30 01:34:18;;;;;;;8.50;7.90;;;;;;;;;;5035872;28;20431;-75
2022/06/30 01:36:45;;;;;;;8.40;7.80;;;;;;;;;;5028877;28;21126;-76
2022/06/30 01:39:14;;;;;;;7.90;7.40;;;;;;;;;;5036855;28;20425;-75
2022/06/30 01:41:41;;;;;;;8.15;7.55;;;;;;;;;;5038092;28;21056;-75
2022/06/30 01:44:08;;;;;;;8.40;7.80;;;;;;;;;;5034153;28;20441;-75
2022/06/30 01:46:35;;;;;;;8.30;7.80;;;;;;;;;;5033298;28;20440;-75
2022/06/30 01:49:02;;;;;;;8.60;8.00;;;;;;;;;;5036309;28;20433;-75
2022/06/30 01:51:29;;;;;;;8.60;8.00;;;;;;;;;;5043234;28;20440;-75
2022/06/30 01:53:56;;;;;;;8.70;8.00;;;;;;;;;;5043306;28;20429;-75
2022/06/30 01:56:25;;;;;;;8.80;8.10;;;;;;;;;;5042098;28;20498;-75
2022/06/30 01:58:52;;;;;;;8.70;8.10;;;;;;;;;;5041118;28;20436;-75
2022/06/30 02:01:19;;;;;;;8.75;8.20;;;;;;;;;;5044249;28;20491;-75
2022/06/30 02:03:46;;;;;;;9.00;8.40;;;;;;;;;;5038730;28;20520;-75
2022/06/30 02:06:13;;;;;;;9.20;8.40;;;;;;;;;;5037767;28;20936;-75
2022/06/30 02:08:41;;;;;;;9.45;8.75;;;;;;;;;;5040034;28;20432;-75
2022/06/30 02:11:08;;;;;;;9.13;8.43;;;;;;;;;;5040682;28;20464;-75
2022/06/30 02:13:36;;;;;;;8.88;8.27;;;;;;;;;;5034416;28;20484;-75
2022/06/30 02:16:03;;;;;;;8.80;8.20;;;;;;;;;;5041074;28;20433;-75
2022/06/30 02:18:30;;;;;;;9.27;8.57;;;;;;;;;;5044496;28;20525;-74
2022/06/30 02:20:58;;;;;;;9.80;9.10;;;;;;;;;;5047026;28;20433;-75
2022/06/30 02:23:25;;;;;;;8.38;7.68;;;;;;;;;;5042213;28;20555;-74
2022/06/30 02:25:52;;;;;;;8.48;7.88;;;;;;;;;;5044494;28;20461;-74
2022/06/30 02:28:19;;;;;;;8.55;7.95;;;;;;;;;;5043894;28;20425;-75
2022/06/30 02:30:48;;;;;;;9.52;8.80;;;;;;;;;;5044801;28;20426;-75
2022/06/30 02:33:17;;;;;;;9.35;8.65;;;;;;;;;;5034903;28;20910;-75
2022/06/30 02:35:44;;;;;;;8.50;8.00;;;;;;;;;;5041497;28;22204;-74
2022/06/30 02:38:11;;;;;;;9.07;8.48;;;;;;;;;;5037395;28;20428;-75
2022/06/30 02:40:39;;;;;;;9.57;8.77;;;;;;;;;;5034890;28;20518;-74
2022/06/30 02:43:06;;;;;;;8.57;7.97;;;;;;;;;;5038056;28;20441;-74
2022/06/30 02:45:33;;;;;;;9.23;8.43;;;;;;;;;;5036938;28;20433;-75
2022/06/30 02:48:01;;;;;;;9.50;8.80;;;;;;;;;;5040931;28;20519;-75
2022/06/30 02:50:28;;;;;;;9.10;8.40;;;;;;;;;;5039446;28;20865;-74
2022/06/30 02:52:56;;;;;;;9.23;8.52;;;;;;;;;;5036870;28;20440;-74
2022/06/30 02:55:23;;;;;;;9.10;8.50;;;;;;;;;;5040940;28;20483;-74
2022/06/30 02:57:50;;;;;;;10.40;9.60;;;;;;;;;;5037732;28;20550;-75
2022/06/30 03:00:17;;;;;;;9.30;8.60;;;;;;;;;;5039102;28;20425;-75
2022/06/30 03:02:46;;;;;;;10.00;9.20;;;;;;;;;;5034223;28;20524;-74
2022/06/30 03:05:15;;;;;;;10.65;9.85;;;;;;;;;;5033555;28;20439;-74
2022/06/30 03:07:42;;;;;;;9.73;9.00;;;;;;;;;;5041990;28;20429;-74
2022/06/30 03:10:09;;;;;;;9.60;8.90;;;;;;;;;;5035770;28;20431;-74
2022/06/30 03:12:37;;;;;;;10.65;9.95;;;;;;;;;;5027926;28;20421;-74
2022/06/30 03:15:05;;;;;;;9.85;9.15;;;;;;;;;;5038106;28;20460;-74
2022/06/30 03:17:32;;;;;;;10.05;9.35;;;;;;;;;;5039704;28;20523;-74
2022/06/30 03:19:59;;;;;;;10.00;9.30;;;;;;;;;;5037513;28;20452;-74
2022/06/30 03:22:28;;;;;;;10.07;9.38;;;;;;;;;;5034499;28;20451;-75
2022/06/30 03:24:55;;;;;;;9.50;8.80;;;;;;;;;;5040650;28;20821;-74
2022/06/30 03:27:22;;;;;;;10.40;9.60;;;;;;;;;;5036240;28;20532;-74
2022/06/30 03:29:49;;;;;;;9.90;9.20;;;;;;;;;;5033509;28;21503;-74
2022/06/30 03:32:16;;;;;;;10.55;9.75;;;;;;;;;;5041474;28;20536;-74
2022/06/30 03:34:43;;;;;;;10.02;9.20;;;;;;;;;;5039249;28;20438;-74
2022/06/30 03:37:10;;;;;;;10.52;9.73;;;;;;;;;;5043721;28;20437;-75
2022/06/30 03:39:39;;;;;;;8.73;8.13;;;;;;;;;;5041653;28;20425;-74
2022/06/30 03:42:06;;;;;;;9.77;8.90;;;;;;;;;;5032862;28;20427;-74
2022/06/30 03:44:33;;;;;;;10.18;9.48;;;;;;;;;;5035974;28;20835;-74
2022/06/30 03:47:00;;;;;;;10.00;9.30;;;;;;;;;;5036481;28;20504;-74
2022/06/30 03:49:28;;;;;;;10.05;9.35;;;;;;;;;;5035263;28;20441;-74
2022/06/30 03:51:55;;;;;;;10.00;9.20;;;;;;;;;;5034222;28;20483;-74
2022/06/30 03:54:22;;;;;;;9.88;9.07;;;;;;;;;;5031987;28;20433;-74
2022/06/30 03:56:50;;;;;;;9.25;8.50;;;;;;;;;;5040492;28;20456;-74
2022/06/30 03:59:18;;;;;;;9.48;8.68;;;;;;;;;;5032508;28;20439;-74
2022/06/30 04:01:45;;;;;;;9.48;8.77;;;;;;;;;;5037805;28;20483;-74
2022/06/30 04:04:12;;;;;;;9.60;8.90;;;;;;;;;;5037021;28;20445;-74
2022/06/30 04:06:39;;;;;;;9.60;8.90;;;;;;;;;;5032683;28;20437;-74
2022/06/30 04:09:06;;;;;;;9.40;8.70;;;;;;;;;;5032936;28;20441;-74
2022/06/30 04:11:33;;;;;;;9.57;8.88;;;;;;;;;;5041519;28;20433;-75
2022/06/30 04:14:02;;;;;;;9.90;9.20;;;;;;;;;;5031204;28;20433;-75
2022/06/30 04:16:29;;;;;;;9.88;9.18;;;;;;;;;;5037858;28;20463;-75
2022/06/30 04:18:56;;;;;;;9.77;9.07;;;;;;;;;;5042180;28;20906;-74
2022/06/30 04:21:23;;;;;;;9.90;9.10;;;;;;;;;;5034564;28;20548;-74
2022/06/30 04:23:50;;;;;;;10.20;9.40;;;;;;;;;;5033571;28;20429;-74
2022/06/30 04:26:18;;;;;;;9.98;9.18;;;;;;;;;;5036517;28;20462;-74
2022/06/30 04:28:45;;;;;;;9.43;8.73;;;;;;;;;;5040116;28;20915;-75
2022/06/30 04:33:58;;;;;;;9.38;8.77;;;;;;;;;;5042976;28;20526;-74
2022/06/30 04:36:25;;;;;;;9.53;8.83;;;;;;;;;;5060162;23;20440;-69
2022/06/30 04:38:52;;;;;;;10.00;9.20;;;;;;;;;;5052803;28;20518;-69
2022/06/30 04:41:24;;;;;;;9.90;9.10;;;;;;;;;;5058010;28;20431;-68
2022/06/30 04:43:52;;;;;;;10.20;9.45;;;;;;;;;;5060263;28;20423;-68
2022/06/30 04:46:20;;;;;;;9.75;8.95;;;;;;;;;;5055895;28;20437;-69
2022/06/30 04:48:47;;;;;;;11.38;10.35;;;;;;;;;;5062891;28;20923;-67
2022/06/30 04:51:15;;;;;;;11.52;10.50;;;;;;;;;;5059689;28;20502;-70
2022/06/30 04:53:42;;;;;;;11.85;10.75;;;;;;;;;;5051331;28;20435;-68
2022/06/30 04:56:09;;;;;;;12.68;11.40;;;;;;;;;;5053557;28;20428;-70
2022/06/30 04:58:37;;;;;;;12.93;10.80;;;;;;;;;;5054806;28;20426;-70
2022/06/30 05:01:04;;;;;;;12.40;11.30;;;;;;;;;;5052243;28;20476;-67
2022/06/30 05:03:34;;;;;;;11.40;10.30;;;;;;;;;;5055379;28;20435;-71
2022/06/30 05:06:01;;;;;;;11.20;10.30;;;;;;;;;;5049274;28;20436;-69
2022/06/30 05:08:28;;;;;;;10.70;9.60;;;;;;;;;;5051342;28;20461;-62
2022/06/30 05:10:55;;;;;;;13.13;11.35;;;;;;;;;;5056745;28;20427;-62
2022/06/30 05:13:23;;;;;;;11.83;10.63;;;;;;;;;;5061463;28;20814;-63
2022/06/30 05:15:50;;;;;;;12.18;10.90;;;;;;;;;;5048548;28;20436;-61
2022/06/30 05:18:17;;;;;;;11.13;10.32;;;;;;;;;;5053168;28;20431;-62
2022/06/30 05:20:46;;;;;;;11.02;10.02;;;;;;;;;;5051200;28;20469;-62
2022/06/30 05:23:13;;;;;;;11.70;10.90;;;;;;;;;;5056332;28;20427;-61
2022/06/30 05:28:25;;;;;;;11.30;10.43;;;;;;;;;;5046916;28;20436;-62
2022/06/30 05:30:52;;;;;;;12.20;11.30;;;;;;;;;;5041652;28;20429;-61
2022/06/30 05:33:20;;;;;;;12.50;11.30;;;;;;;;;;5044723;28;21170;-61
2022/06/30 05:35:49;;;;;;;13.20;12.02;;;;;;;;;;5056984;28;20433;-62
2022/06/30 05:38:17;;;;;;;12.32;11.43;;;;;;;;;;5055932;28;20537;-62
2022/06/30 05:40:45;;;;;;;12.40;11.40;;;;;;;;;;5050131;28;20607;-61
2022/06/30 05:43:13;;;;;;;12.70;11.80;;;;;;;;;;5053488;28;20997;-60
2022/06/30 05:45:40;;;;;;;13.57;12.27;;;;;;;;;;5068796;28;20461;-61
2022/06/30 05:48:08;;;;;;;13.55;12.45;;;;;;;;;;5056349;28;20427;-62
2022/06/30 05:50:35;;;;;;;13.35;12.35;;;;;;;;;;5058576;28;20451;-61
2022/06/30 05:53:04;;;;;;;13.10;12.10;;;;;;;;;;5059354;28;20429;-61
2022/06/30 05:55:31;;;;;;;12.32;11.32;;;;;;;;;;5054017;28;20435;-61
2022/06/30 05:58:01;;;;;;;13.50;12.10;;;;;;;;;;5056203;28;20532;-61
2022/06/30 06:00:29;;;;;;;13.57;12.57;;;;;;;;;;5052255;28;20437;-61
2022/06/30 06:02:56;;;;;;;13.03;11.93;;;;;;;;;;5062510;28;20494;-60
2022/06/30 06:05:23;;;;;;;11.88;11.05;;;;;;;;;;5058325;28;20566;-62
2022/06/30 06:07:51;;;;;;;12.57;11.50;;;;;;;;;;5055946;28;20459;-62
2022/06/30 06:10:20;;;;;;;12.60;11.50;;;;;;;;;;5056912;28;20575;-62
2022/06/30 06:12:47;;;;;;;11.90;10.90;;;;;;;;;;5053358;28;20450;-62
2022/06/30 06:15:15;;;;;;;12.53;11.53;;;;;;;;;;5052131;28;20490;-62
2022/06/30 06:17:42;;;;;;;11.93;11.13;;;;;;;;;;5056053;28;20433;-62
2022/06/30 06:20:10;;;;;;;11.65;10.80;;;;;;;;;;5048096;28;20870;-62
2022/06/30 06:22:38;;;;;;;11.75;10.75;;;;;;;;;;5061946;28;20431;-62
2022/06/30 06:25:05;;;;;;;11.80;10.70;;;;;;;;;;5053918;28;20431;-62
2022/06/30 06:27:34;;;;;;;11.20;10.30;;;;;;;;;;5061495;28;20430;-62
2022/06/30 06:30:03;;;;;;;11.20;10.30;;;;;;;;;;5054223;28;20541;-63
2022/06/30 06:32:30;;;;;;;10.90;10.10;;;;;;;;;;5054534;28;20430;-63
2022/06/30 06:34:57;;;;;;;10.90;10.03;;;;;;;;;;5055559;28;20427;-63
2022/06/30 06:37:24;;;;;;;10.50;9.70;;;;;;;;;;5063400;28;20436;-62
2022/06/30 06:39:51;;;;;;;9.30;8.57;;;;;;;;;;5055288;28;20419;-63
2022/06/30 06:42:25;;;;;;;10.60;9.60;;;;;;;;;;5054561;28;20448;-63
2022/06/30 06:44:53;;;;;;;9.52;8.82;;;;;;;;;;5051153;28;20436;-61
2022/06/30 06:47:21;;;;;;;9.60;8.80;;;;;;;;;;5056332;28;20444;-61
2022/06/30 06:49:48;;;;;;;9.82;9.00;;;;;;;;;;5052199;28;20484;-62
2022/06/30 06:52:15;;;;;;;9.50;8.70;;;;;;;;;;5055413;28;20424;-61
2022/06/30 06:54:42;;;;;;;10.30;9.30;;;;;;;;;;5040925;28;20956;-62
2022/06/30 06:57:10;;;;;;;9.50;8.70;;;;;;;;;;5041617;28;20511;-62
2022/06/30 06:59:38;;;;;;;9.57;8.77;;;;;;;;;;5041583;28;20526;-61
2022/06/30 07:02:07;;;;;;;9.40;8.60;;;;;;;;;;5042875;28;20466;-61
2022/06/30 07:04:35;;;;;;;9.70;8.80;;;;;;;;;;5048487;28;20741;-62
2022/06/30 07:07:02;;;;;;;9.05;8.25;;;;;;;;;;5039617;28;20511;-61
2022/06/30 07:09:29;;;;;;;9.02;8.32;;;;;;;;;;5043853;28;20447;-62
2022/06/30 07:11:57;;;;;;;8.23;7.53;;;;;;;;;;5042633;28;20518;-62
2022/06/30 07:14:24;;;;;;;8.60;7.80;;;;;;;;;;5057928;28;20520;-62
2022/06/30 07:16:51;;;;;;;8.50;7.70;;;;;;;;;;5041250;28;20468;-62
2022/06/30 07:19:20;;;;;;;9.40;8.50;;;;;;;;;;5054124;28;20940;-61
2022/06/30 07:21:47;;;;;;;8.77;7.88;;;;;;;;;;5046382;28;20441;-61
2022/06/30 07:24:14;;;;;;;8.15;7.40;;;;;;;;;;5040507;28;21177;-62
2022/06/30 07:26:41;;;;;;;8.10;7.40;;;;;;;;;;5043126;28;20494;-60
2022/06/30 07:29:08;;;;;;;8.15;7.45;;;;;;;;;;5028163;28;20443;-61
2022/06/30 08:02:00;;;;;;;7.50;6.90;;;;;;;;;;5171528;27;20406;-61
2022/06/30 08:04:29;;;;;;;7.70;7.10;;;;;;;;;;5095019;27;1984700;-63
2022/06/30 08:06:56;;;;;;;7.38;6.88;;;;;;;;;;5151774;27;20428;-64
2022/06/30 08:09:23;;;;;;;6.70;6.30;;;;;;;;;;5155117;27;20420;-66
2022/06/30 08:11:53;;;;;;;7.50;6.90;;;;;;;;;;5155227;27;20427;-64
2022/06/30 08:14:20;;;;;;;6.80;6.30;;;;;;;;;;5151261;27;20430;-64
2022/06/30 08:16:47;;;;;;;6.90;6.40;;;;;;;;;;5152050;27;20428;-64
2022/06/30 08:19:14;;;;;;;6.83;6.23;;;;;;;;;;5153302;27;20431;-64
2022/06/30 08:21:43;;;;;;;6.72;6.13;;;;;;;;;;5154780;27;20423;-70
2022/06/30 08:24:10;;;;;;;6.45;5.93;;;;;;;;;;5154759;27;20677;-67
2022/06/30 08:26:37;;;;;;;6.43;5.93;;;;;;;;;;5154316;27;20455;-74
2022/06/30 08:29:04;;;;;;;8.13;6.35;;;;;;;;;;5154549;27;20431;-64
2022/06/30 08:31:33;;;;;;;6.97;5.80;;;;;;;;;;5151399;27;20450;-63
2022/06/30 08:34:00;;;;;;;6.70;5.95;;;;;;;;;;5151086;27;20419;-70
2022/06/30 08:36:27;;;;;;;8.30;5.72;;;;;;;;;;5152737;27;20454;-70
2022/06/30 08:38:56;;;;;;;6.30;5.80;;;;;;;;;;5149608;27;20422;-70
2022/06/30 08:44:09;;;;;;;6.03;5.53;;;;;;;;;;5153108;27;20427;-70
2022/06/30 08:46:37;;;;;;;5.80;5.40;;;;;;;;;;5156401;27;20424;-70
2022/06/30 08:49:04;;;;;;;5.90;5.40;;;;;;;;;;5158310;27;20958;-69
2022/06/30 08:51:35;;;;;;;5.80;5.30;;;;;;;;;;5154375;27;20423;-69
2022/06/30 08:54:04;;;;;;;5.75;5.25;;;;;;;;;;5156855;27;20444;-70
2022/06/30 08:56:31;;;;;;;5.50;5.10;;;;;;;;;;5157329;27;20441;-69
2022/06/30 08:58:59;;;;;;;5.38;4.97;;;;;;;;;;5153816;27;20515;-69
2022/06/30 09:01:27;;;;;;;5.30;4.80;;;;;;;;;;5143205;27;20787;-69
2022/06/30 09:03:54;;;;;;;5.40;4.90;;;;;;;;;;5145006;27;20429;-69
2022/06/30 09:06:22;;;;;;;5.40;4.90;;;;;;;;;;5141325;27;20438;-68
2022/06/30 09:08:49;;;;;;;5.10;4.70;;;;;;;;;;5138638;27;20421;-70
2022/06/30 09:11:18;;;;;;;5.80;5.15;;;;;;;;;;5141384;27;20430;-70
2022/06/30 09:13:46;;;;;;;5.00;4.53;;;;;;;;;;5141903;27;20950;-70
2022/06/30 09:16:13;;;;;;;6.70;4.70;;;;;;;;;;5145051;27;20434;-70
2022/06/30 09:18:40;;;;;;;5.00;4.60;;;;;;;;;;5139274;27;20442;-70
2022/06/30 09:21:16;;;;;;;4.97;4.57;;;;;;;;;;5138677;27;20436;-70
2022/06/30 09:23:44;;;;;;;5.45;4.95;;;;;;;;;;5139744;27;20435;-70
2022/06/30 09:26:16;;;;;;;5.20;4.70;;;;;;;;;;5140900;27;20424;-70
2022/06/30 09:28:46;;;;;;;5.30;4.90;;;;;;;;;;5140198;27;20424;-70
2022/06/30 09:31:14;;;;;;;4.90;4.50;;;;;;;;;;5140212;27;20432;-70
2022/06/30 09:33:44;;;;;;;5.10;4.70;;;;;;;;;;5140447;27;20428;-70
2022/06/30 09:36:25;;;;;;;5.13;4.72;;;;;;;;;;5140471;27;20428;-73
2022/06/30 09:39:01;;;;;;;5.10;4.60;;;;;;;;;;5138581;27;20424;-72
2022/06/30 09:41:29;;;;;;;6.65;4.30;;;;;;;;;;5137200;27;20838;-75
2022/06/30 09:43:58;;;;;;;4.40;4.00;;;;;;;;;;5141041;27;20913;-77
2022/06/30 09:46:26;;;;;;;5.00;4.40;;;;;;;;;;5135560;27;20422;-77
2022/06/30 09:48:53;;;;;;;6.20;4.22;;;;;;;;;;5146376;27;22532;-76
2022/06/30 09:51:20;;;;;;;4.45;3.60;;;;;;;;;;5138093;27;20411;-76
2022/06/30 09:54:02;;;;;;;3.95;3.55;;;;;;;;;;5147871;27;20409;-76
2022/06/30 09:56:29;;;;;;;4.88;4.47;;;;;;;;;;5137872;27;20428;-76
2022/06/30 09:58:58;;;;;;;4.07;3.67;;;;;;;;;;5135172;27;20909;-75
2022/06/30 10:01:25;;;;;;;3.97;3.40;;;;;;;;;;5138564;27;20432;-76
2022/06/30 10:03:59;;;;;;;4.60;4.10;;;;;;;;;;5139026;27;21293;-76
2022/06/30 10:06:27;;;;;;;4.22;3.92;;;;;;;;;;5137924;27;20424;-75
2022/06/30 10:08:55;;;;;;;3.83;3.30;;;;;;;;;;5140425;27;20429;-74
2022/06/30 10:11:22;;;;;;;4.40;3.20;;;;;;;;;;5142835;27;20425;-75
2022/06/30 10:13:50;;;;;;;3.42;3.13;;;;;;;;;;5139556;27;20432;-76
2022/06/30 10:16:19;;;;;;;3.40;2.83;;;;;;;;;;5136099;27;20439;-75
2022/06/30 10:18:46;;;;;;;3.83;3.47;;;;;;;;;;5141056;27;20803;-76
2022/06/30 10:21:13;;;;;;;3.33;3.03;;;;;;;;;;5140013;27;20427;-76
2022/06/30 10:23:40;;;;;;;4.75;3.20;;;;;;;;;;5142646;27;20424;-77
2022/06/30 10:27:11;;;;;;;2.97;2.67;;;;;;;;;;5145784;27;20432;-77
2022/06/30 10:28:55;;;;;;;2.95;2.75;;;;;;;;;;5145693;27;22129;-77
2022/06/30 10:31:24;;;;;;;2.78;2.58;;;;;;;;;;5141767;27;20489;-77
2022/06/30 10:33:57;;;;;;;4.00;2.65;;;;;;;;;;5138453;27;20428;-76
2022/06/30 10:36:27;;;;;;;3.25;2.90;;;;;;;;;;5136828;27;20906;-78
2022/06/30 10:39:02;;;;;;;3.30;2.97;;;;;;;;;;5135917;27;20809;-77
2022/06/30 10:41:29;;;;;;;2.90;2.70;;;;;;;;;;5139963;27;20475;-78
2022/06/30 10:44:20;;;;;;;3.10;2.80;;;;;;;;;;5143512;27;20991;-77
2022/06/30 10:47:08;;;;;;;3.00;2.80;;;;;;;;;;5117702;27;20439;-76
2022/06/30 10:49:35;;;;;;;4.10;3.10;;;;;;;;;;5136133;27;20949;-77
2022/06/30 10:52:22;;;;;;;5.10;3.25;;;;;;;;;;5149246;27;20424;-76
2022/06/30 10:54:49;;;;;;;4.20;3.10;;;;;;;;;;5144604;27;20440;-77
2022/06/30 10:57:17;;;;;;;4.97;3.20;;;;;;;;;;5136488;27;21134;-67
2022/06/30 10:59:44;;;;;;;5.23;3.40;;;;;;;;;;5145287;27;20808;-72
2022/06/30 11:02:24;;;;;;;3.30;2.97;;;;;;;;;;5142149;27;20432;-72
2022/06/30 11:04:52;;;;;;;5.05;2.80;;;;;;;;;;5137079;27;20436;-71
2022/06/30 11:07:20;;;;;;;3.60;2.80;;;;;;;;;;5138393;27;20431;-72
2022/06/30 11:10:05;;;;;;;4.05;2.72;;;;;;;;;;5136599;27;20435;-72
2022/06/30 11:12:51;;;;;;;2.90;2.60;;;;;;;;;;5135742;27;20907;-71
2022/06/30 11:15:18;;;;;;;4.25;2.60;;;;;;;;;;5137408;27;21200;-71
2022/06/30 11:17:48;;;;;;;3.47;2.75;;;;;;;;;;5134096;27;20422;-71
2022/06/30 11:20:15;;;;;;;4.30;2.70;;;;;;;;;;5135408;27;20501;-71
2022/06/30 11:22:43;;;;;;;2.95;2.53;;;;;;;;;;5140791;27;20451;-71
2022/06/30 11:25:11;;;;;;;5.63;2.50;;;;;;;;;;5135820;27;20475;-71
2022/06/30 11:27:39;;;;;;;3.47;2.60;;;;;;;;;;5135731;27;20425;-70
2022/06/30 11:30:07;;;;;;;3.25;2.38;;;;;;;;;;5139988;27;20409;-72
2022/06/30 11:32:34;;;;;;;4.07;2.47;;;;;;;;;;5137794;27;20434;-72
2022/06/30 11:35:03;;;;;;;3.30;2.50;;;;;;;;;;5141074;27;20823;-72
2022/06/30 11:37:33;;;;;;;3.95;2.40;;;;;;;;;;5135729;27;20455;-72
2022/06/30 11:40:01;;;;;;;3.70;2.20;;;;;;;;;;5139838;27;20698;-72
2022/06/30 11:42:28;;;;;;;4.35;2.30;;;;;;;;;;5139708;27;20429;-71
2022/06/30 11:44:55;;;;;;;3.00;2.13;;;;;;;;;;5139949;27;20419;-72
2022/06/30 11:47:23;;;;;;;2.33;2.10;;;;;;;;;;5137682;27;20428;-72
2022/06/30 11:49:51;;;;;;;3.15;2.40;;;;;;;;;;5136231;27;20436;-71
2022/06/30 11:52:21;;;;;;;4.03;2.20;;;;;;;;;;5136324;27;20429;-72
2022/06/30 11:54:50;;;;;;;2.63;2.42;;;;;;;;;;5138931;27;20474;-72
2022/06/30 11:57:17;;;;;;;2.50;2.00;;;;;;;;;;5138889;27;20426;-72
2022/06/30 11:59:45;;;;;;;3.13;2.30;;;;;;;;;;5139147;27;21318;-71
2022/06/30 12:02:12;;;;;;;3.90;2.20;;;;;;;;;;5132760;27;20425;-71
2022/06/30 12:04:41;;;;;;;2.60;2.38;;;;;;;;;;5138143;27;20436;-72
2022/06/30 12:07:09;;;;;;;3.50;2.20;;;;;;;;;;5135562;27;20436;-71
2022/06/30 12:09:37;;;;;;;3.85;2.20;;;;;;;;;;5135041;27;20426;-71
2022/06/30 12:12:05;;;;;;;3.67;2.30;;;;;;;;;;5131343;27;20516;-71
2022/06/30 12:14:33;;;;;;;3.45;2.47;;;;;;;;;;5134401;27;20424;-72
2022/06/30 12:17:00;;;;;;;2.40;2.30;;;;;;;;;;5136383;27;20533;-70
2022/06/30 12:19:28;;;;;;;3.20;2.03;;;;;;;;;;5140535;27;20425;-71
2022/06/30 12:21:55;;;;;;;6.00;2.50;;;;;;;;;;5138641;27;21011;-71
2022/06/30 12:24:23;;;;;;;3.58;2.15;;;;;;;;;;5145510;27;20435;-72
2022/06/30 12:26:52;;;;;;;2.70;2.10;;;;;;;;;;5138326;27;20432;-70
2022/06/30 12:29:20;;;;;;;2.28;2.08;;;;;;;;;;5134260;27;20461;-72
2022/06/30 12:31:57;;;;;;;3.90;2.47;;;;;;;;;;5131193;27;20486;-72
2022/06/30 12:34:25;;;;;;;3.10;2.20;;;;;;;;;;5136620;27;20468;-74
2022/06/30 12:36:52;;;;;;;2.40;2.20;;;;;;;;;;5139437;27;20512;-72
2022/06/30 12:39:19;;;;;;;2.40;2.03;;;;;;;;;;5138943;27;20422;-71
2022/06/30 12:41:46;;;;;;;3.27;2.30;;;;;;;;;;5133160;27;20428;-73
2022/06/30 12:44:15;;;;;;;2.90;2.30;;;;;;;;;;5144796;27;20421;-73
2022/06/30 12:46:44;;;;;;;2.38;2.17;;;;;;;;;;5136944;27;20930;-72
2022/06/30 12:49:20;;;;;;;2.30;2.10;;;;;;;;;;5137006;27;20520;-71
2022/06/30 12:51:48;;;;;;;2.70;2.10;;;;;;;;;;5141065;27;20899;-71
2022/06/30 12:54:16;;;;;;;2.43;2.10;;;;;;;;;;5145858;27;20796;-71
2022/06/30 12:56:50;;;;;;;2.60;2.30;;;;;;;;;;5138888;27;20798;-71
2022/06/30 12:59:19;;;;;;;3.08;2.28;;;;;;;;;;5136542;27;20438;-72
2022/06/30 13:01:47;;;;;;;3.50;2.50;;;;;;;;;;5140967;27;20914;-72
2022/06/30 13:04:19;;;;;;;3.95;2.28;;;;;;;;;;5137213;27;20429;-70
2022/06/30 13:06:47;;;;;;;2.67;2.25;;;;;;;;;;5142763;27;20444;-72
2022/06/30 13:09:15;;;;;;;3.30;2.55;;;;;;;;;;5142457;27;20430;-71
2022/06/30 13:11:45;;;;;;;3.40;2.60;;;;;;;;;;5138474;27;20533;-71
2022/06/30 13:14:12;;;;;;;3.30;2.50;;;;;;;;;;5146290;27;20502;-71
2022/06/30 13:16:41;;;;;;;2.30;2.10;;;;;;;;;;5142298;27;21144;-71
2022/06/30 13:19:08;;;;;;;2.60;2.40;;;;;;;;;;5135125;27;20427;-71
2022/06/30 13:21:36;;;;;;;3.10;2.30;;;;;;;;;;5138377;27;20444;-71
2022/06/30 13:24:03;;;;;;;4.10;2.40;;;;;;;;;;5141780;27;20436;-72
2022/06/30 13:26:30;;;;;;;3.75;2.20;;;;;;;;;;5146110;27;20424;-70
2022/06/30 13:28:57;;;;;;;3.20;2.25;;;;;;;;;;5147895;27;20825;-70
2022/06/30 13:31:26;;;;;;;2.83;2.30;;;;;;;;;;5142708;27;20798;-70
2022/06/30 13:33:54;;;;;;;3.00;2.30;;;;;;;;;;5138783;27;21168;-73
2022/06/30 13:36:22;;;;;;;2.50;2.22;;;;;;;;;;5148635;27;20413;-71
2022/06/30 13:38:49;;;;;;;2.30;2.15;;;;;;;;;;5141568;27;20409;-76
2022/06/30 13:41:16;;;;;;;3.33;2.40;;;;;;;;;;5144187;27;20405;-78
2022/06/30 13:43:44;;;;;;;42.53;7.20;;;;;;;;;;5142682;27;20429;-77
2022/06/30 13:46:11;;;;;;;34.45;6.47;;;;;;;;;;5149663;27;20431;-78
2022/06/30 13:48:39;;;;;;;20.70;5.35;;;;;;;;;;5145841;27;20452;-76
2022/06/30 13:51:07;;;;;;;8.67;2.70;;;;;;;;;;5144164;27;20420;-79
2022/06/30 13:53:34;;;;;;;2.60;2.40;;;;;;;;;;5150839;27;20811;-79
2022/06/30 13:56:01;;;;;;;2.60;2.40;;;;;;;;;;5148826;27;20417;-79
2022/06/30 13:58:28;;;;;;;2.40;2.20;;;;;;;;;;5146349;27;20800;-78
2022/06/30 14:00:56;;;;;;;3.10;2.20;;;;;;;;;;5145068;27;20414;-76
2022/06/30 14:03:23;;;;;;;3.03;2.40;;;;;;;;;;5144032;27;20456;-76
2022/06/30 14:05:50;;;;;;;2.97;2.67;;;;;;;;;;5150923;27;20428;-77
2022/06/30 14:08:19;;;;;;;2.80;2.60;;;;;;;;;;5145004;27;20506;-77
2022/06/30 14:10:46;;;;;;;2.42;2.25;;;;;;;;;;5149655;27;20582;-77
2022/06/30 14:13:13;;;;;;;2.40;2.20;;;;;;;;;;5145833;27;20424;-77
2022/06/30 14:15:41;;;;;;;2.60;2.40;;;;;;;;;;5148720;27;20413;-77
2022/06/30 14:18:10;;;;;;;2.20;2.10;;;;;;;;;;5144145;27;20504;-78
2022/06/30 14:20:37;;;;;;;2.60;2.40;;;;;;;;;;5144118;27;20424;-77
2022/06/30 14:23:04;;;;;;;2.40;2.20;;;;;;;;;;5143092;27;20422;-77
2022/06/30 14:25:34;;;;;;;2.20;2.10;;;;;;;;;;5141586;27;20420;-77
2022/06/30 14:28:01;;;;;;;2.03;1.90;;;;;;;;;;5141964;27;20504;-76
2022/06/30 14:30:28;;;;;;;2.10;2.00;;;;;;;;;;5144046;27;20420;-77
2022/06/30 14:32:56;;;;;;;2.15;1.95;;;;;;;;;;5146574;27;20463;-78
2022/06/30 14:35:23;;;;;;;2.10;2.00;;;;;;;;;;5145562;27;20433;-76
2022/06/30 14:37:50;;;;;;;2.00;1.90;;;;;;;;;;5138924;27;20425;-77
2022/06/30 14:40:18;;;;;;;3.80;2.00;;;;;;;;;;5141301;27;20918;-77
2022/06/30 14:42:50;;;;;;;2.28;2.08;;;;;;;;;;5143077;27;20514;-77
2022/06/30 14:45:19;;;;;;;2.70;2.20;;;;;;;;;;5139809;27;20424;-76
2022/06/30 14:47:47;;;;;;;2.10;2.00;;;;;;;;;;5145650;27;20432;-75
2022/06/30 14:50:14;;;;;;;2.90;2.10;;;;;;;;;;5139198;27;20431;-77
2022/06/30 14:52:42;;;;;;;1.90;1.80;;;;;;;;;;5135390;27;20425;-78
2022/06/30 14:55:10;;;;;;;2.70;1.80;;;;;;;;;;5141472;27;20436;-76
2022/06/30 14:57:37;;;;;;;2.40;2.10;;;;;;;;;;5144688;27;20425;-76
2022/06/30 15:00:07;;;;;;;2.10;2.00;;;;;;;;;;5136638;27;20428;-76
2022/06/30 15:02:34;;;;;;;1.95;1.85;;;;;;;;;;5137618;27;20428;-75
2022/06/30 15:05:01;;;;;;;2.35;2.10;;;;;;;;;;5142311;27;20906;-77
2022/06/30 15:07:28;;;;;;;2.20;2.10;;;;;;;;;;5140140;27;20520;-76
2022/06/30 15:09:55;;;;;;;2.50;2.30;;;;;;;;;;5138650;27;20444;-78
2022/06/30 15:12:23;;;;;;;45.95;8.18;;;;;;;;;;5143856;27;20428;-75
2022/06/30 15:14:50;;;;;;;5.32;2.50;;;;;;;;;;5137211;27;20416;-63
2022/06/30 15:17:19;;;;;;;2.10;1.90;;;;;;;;;;5131032;27;20430;-62
2022/06/30 15:19:46;;;;;;;2.30;2.10;;;;;;;;;;5134637;27;20808;-63
2022/06/30 15:24:58;;;;;;;2.60;2.40;;;;;;;;;;5135305;27;20416;-62
2022/06/30 15:27:25;;;;;;;2.00;1.90;;;;;;;;;;5133444;27;20442;-77